Terminal Aerodrome Forecast
Issued by NWS Twin Cities, MN

Home | Current Version | Previous Version | Text Only | Print | Product List | Glossary Off
Versions: 1 2 3 4 5 6 7 8 9 10 11 12 13 14 15 16 17 18 19

000
FTUS43 KMPX 190500
TAFSTC
TAF
KSTC 190520Z 1906/2006 30004KT P6SM FEW200
     FM190900 31003KT 6SM BR SCT015 SCT200
      TEMPO 1909/1912 5SM BR BKN020
     FM191400 32007KT P6SM SCT200=

USA.gov is the U.S. government's official web portal to all federal, state and local government web resources and services.